Time;durP1;ratioP1;P1;durP2;ratioP2;P2;SDS_P1;SDS_P2;PMS_P1;PMS_P2;Temp;Humidity;BMP_temperature;BMP_pressure;BME280_temperature;BME280_humidity;BME280_pressure;Samples;Min_cycle;Max_cycle;Signal;HPM_P1;HPM_P2
2023/12/14 00:00:36;;;;;;;61.33;21.65;;;;;;;5.03;100.00;97753.69;5040481;28;20052;-85
2023/12/14 00:03:02;;;;;;;52.95;18.63;;;;;;;4.97;100.00;97740.63;5038749;28;20031;-85
2023/12/14 00:05:27;;;;;;;124.05;27.55;;;;;;;4.67;100.00;97758.63;5036853;28;21803;-85
2023/12/14 00:07:53;;;;;;;79.63;23.27;;;;;;;4.66;100.00;97757.81;5056459;28;20039;-84
2023/12/14 00:10:18;;;;;;;76.57;21.35;;;;;;;4.80;100.00;97755.69;5051686;28;20480;-84
2023/12/14 00:12:44;;;;;;;145.23;29.50;;;;;;;4.50;100.00;97769.13;5064992;28;20032;-84
2023/12/14 00:15:09;;;;;;;137.25;26.23;;;;;;;4.69;100.00;97764.47;5038224;28;20067;-85
2023/12/14 00:17:35;;;;;;;150.98;30.10;;;;;;;4.51;100.00;97755.72;5041636;28;20027;-85
2023/12/14 00:20:00;;;;;;;75.85;26.42;;;;;;;4.66;100.00;97751.72;5055272;28;20031;-85
2023/12/14 00:22:25;;;;;;;100.15;27.15;;;;;;;4.69;100.00;97767.13;5057737;28;20036;-85
2023/12/14 00:24:51;;;;;;;110.03;29.27;;;;;;;4.47;100.00;97770.44;5078611;28;20052;-85
2023/12/14 00:27:16;;;;;;;131.52;28.85;;;;;;;4.39;100.00;97788.50;5052830;28;20063;-85
2023/12/14 00:29:42;;;;;;;141.05;31.38;;;;;;;4.19;100.00;97786.25;5071842;28;20110;-84
2023/12/14 00:32:07;;;;;;;98.13;28.50;;;;;;;4.43;100.00;97792.28;5070615;28;20024;-85
2023/12/14 00:34:32;;;;;;;93.40;28.95;;;;;;;4.51;100.00;97797.97;5039018;28;20032;-85
2023/12/14 00:36:58;;;;;;;75.50;27.95;;;;;;;4.47;100.00;97791.56;5038817;28;20028;-85
2023/12/14 00:39:23;;;;;;;57.05;20.85;;;;;;;4.79;100.00;97801.66;5040031;28;20032;-85
2023/12/14 00:41:49;;;;;;;84.03;27.98;;;;;;;4.44;100.00;97807.88;5055942;28;20036;-85
2023/12/14 00:44:14;;;;;;;51.97;22.55;;;;;;;4.74;100.00;97806.84;5057170;28;20035;-84
2023/12/14 00:46:41;;;;;;;76.35;30.23;;;;;;;4.44;100.00;97815.81;5051764;28;20125;-85
2023/12/14 00:49:06;;;;;;;70.95;26.67;;;;;;;4.77;100.00;97819.59;5074698;28;20498;-84
2023/12/14 00:51:32;;;;;;;87.50;28.40;;;;;;;4.96;100.00;97819.16;5055318;28;20024;-85
2023/12/14 00:53:57;;;;;;;106.18;29.42;;;;;;;4.35;100.00;97827.75;5037746;28;20032;-84
2023/12/14 00:56:22;;;;;;;74.65;27.48;;;;;;;4.38;100.00;97829.94;5068015;28;20028;-85
2023/12/14 00:58:48;;;;;;;73.78;26.88;;;;;;;4.69;100.00;97851.69;5059080;28;20173;-85
2023/12/14 01:01:13;;;;;;;69.45;27.73;;;;;;;4.87;100.00;97843.56;5072095;28;20032;-85
2023/12/14 01:03:38;;;;;;;57.97;27.33;;;;;;;4.97;100.00;97843.75;5054029;28;20021;-85
2023/12/14 01:06:04;;;;;;;71.45;25.95;;;;;;;4.57;100.00;97849.88;5059338;28;20115;-85
2023/12/14 01:08:29;;;;;;;63.40;26.48;;;;;;;4.47;100.00;97852.34;5060509;28;20024;-85
2023/12/14 01:10:55;;;;;;;55.58;22.67;;;;;;;4.88;100.00;97853.09;5076543;28;20028;-85
2023/12/14 01:13:20;;;;;;;57.95;23.88;;;;;;;4.46;100.00;97863.91;5060494;28;20115;-85
2023/12/14 01:15:45;;;;;;;62.35;24.58;;;;;;;4.38;100.00;97861.66;5058939;28;20035;-84
2023/12/14 01:18:11;;;;;;;72.32;25.65;;;;;;;4.29;100.00;97867.50;5040073;28;20024;-85
2023/12/14 01:20:36;;;;;;;56.83;24.42;;;;;;;4.40;100.00;97862.22;5068575;28;20024;-84
2023/12/14 01:23:01;;;;;;;65.28;27.85;;;;;;;4.69;100.00;97886.03;5074426;28;20024;-84
2023/12/14 01:25:27;;;;;;;73.32;25.80;;;;;;;4.38;100.00;97887.25;5077893;28;20039;-84
2023/12/14 01:27:52;;;;;;;58.80;25.60;;;;;;;4.10;100.00;97885.34;5032118;28;20081;-84
2023/12/14 01:30:17;;;;;;;55.45;25.17;;;;;;;4.61;100.00;97892.47;5058510;28;20035;-84
2023/12/14 01:32:43;;;;;;;53.15;24.63;;;;;;;4.08;100.00;97886.59;5071110;28;20046;-85
2023/12/14 01:35:08;;;;;;;64.55;26.63;;;;;;;4.19;100.00;97913.00;5073494;28;20154;-84
2023/12/14 01:37:33;;;;;;;56.58;25.15;;;;;;;4.43;100.00;97896.06;5057656;28;20040;-84
2023/12/14 01:39:59;;;;;;;52.28;24.48;;;;;;;4.21;100.00;97907.50;5045113;28;20430;-85
2023/12/14 01:42:24;;;;;;;45.72;23.85;;;;;;;4.26;100.00;97912.88;5059633;28;20028;-85
2023/12/14 01:44:49;;;;;;;53.72;22.33;;;;;;;4.20;100.00;97906.69;5065713;28;20046;-85
2023/12/14 01:47:15;;;;;;;51.00;24.67;;;;;;;4.10;100.00;97922.31;5041676;28;20028;-85
2023/12/14 01:49:41;;;;;;;38.03;19.80;;;;;;;3.70;100.00;97916.06;5079552;28;20042;-84
2023/12/14 01:52:07;;;;;;;33.97;18.73;;;;;;;3.83;100.00;97925.59;5040308;28;20526;-84
2023/12/14 01:54:33;;;;;;;33.67;17.75;;;;;;;4.04;100.00;97912.63;5055042;28;20052;-84
2023/12/14 01:56:59;;;;;;;45.42;20.20;;;;;;;5.07;100.00;97937.28;5074829;28;20032;-85
2023/12/14 01:59:24;;;;;;;26.13;14.40;;;;;;;4.06;100.00;97930.91;5079413;28;20039;-84
2023/12/14 02:01:56;;;;;;;21.02;14.50;;;;;;;3.90;100.00;97937.66;5074004;28;20100;-84
2023/12/14 02:04:23;;;;;;;28.45;15.68;;;;;;;4.16;100.00;97936.41;5055386;28;20085;-84
2023/12/14 02:06:48;;;;;;;31.20;16.02;;;;;;;4.50;100.00;97932.94;5076860;28;20028;-85
2023/12/14 02:09:13;;;;;;;27.00;14.15;;;;;;;4.00;100.00;97940.53;5050272;28;20502;-84
2023/12/14 02:11:39;;;;;;;24.92;12.93;;;;;;;4.00;100.00;97958.22;5047005;28;20387;-85
2023/12/14 02:14:05;;;;;;;18.20;10.88;;;;;;;3.69;100.00;97951.41;5072760;28;20027;-84
2023/12/14 02:16:31;;;;;;;16.13;10.02;;;;;;;3.39;100.00;97935.59;5073725;28;20155;-85
2023/12/14 02:18:57;;;;;;;24.17;12.45;;;;;;;3.92;100.00;97951.44;5072645;28;20031;-84
2023/12/14 02:21:22;;;;;;;17.55;9.13;;;;;;;3.41;100.00;97964.38;5041313;28;20523;-85
2023/12/14 02:23:47;;;;;;;14.35;8.93;;;;;;;3.46;100.00;97972.44;5042813;28;20028;-85
2023/12/14 02:26:13;;;;;;;14.90;9.55;;;;;;;3.53;100.00;97965.25;5072913;28;20055;-85
2023/12/14 02:28:38;;;;;;;20.35;9.88;;;;;;;3.58;100.00;97968.78;5071119;28;20040;-84
2023/12/14 02:31:04;;;;;;;15.60;9.82;;;;;;;3.67;100.00;97969.28;5080314;28;20024;-84
2023/12/14 02:33:29;;;;;;;14.65;9.05;;;;;;;3.34;100.00;97990.06;5067785;28;20494;-84
2023/12/14 02:35:55;;;;;;;17.13;9.48;;;;;;;3.57;100.00;97961.13;5058350;28;20090;-85
2023/12/14 02:38:20;;;;;;;13.50;8.52;;;;;;;3.51;100.00;97976.03;5072378;28;20044;-84
2023/12/14 02:40:46;;;;;;;12.77;8.40;;;;;;;3.60;100.00;97987.06;5072950;28;20043;-85
2023/12/14 02:43:12;;;;;;;18.13;9.98;;;;;;;3.39;100.00;97980.44;5089085;28;20036;-85
2023/12/14 02:45:37;;;;;;;16.70;10.20;;;;;;;3.61;100.00;97968.34;5061167;28;20053;-84
2023/12/14 02:48:03;;;;;;;16.25;9.70;;;;;;;3.38;100.00;97984.13;5079063;28;20032;-85
2023/12/14 02:50:28;;;;;;;15.93;9.38;;;;;;;3.45;100.00;97986.66;5059835;28;20028;-85
2023/12/14 02:52:54;;;;;;;15.25;8.93;;;;;;;3.14;100.00;97981.59;5042338;28;20028;-85
2023/12/14 02:55:19;;;;;;;15.55;9.40;;;;;;;3.24;100.00;97987.94;5054014;28;20487;-85
2023/12/14 02:57:44;;;;;;;15.23;8.45;;;;;;;3.34;100.00;97988.22;5090878;28;20023;-84
2023/12/14 03:00:11;;;;;;;16.42;8.32;;;;;;;3.34;100.00;97995.34;5060936;28;20049;-85
2023/12/14 03:02:37;;;;;;;15.07;9.27;;;;;;;3.75;100.00;97996.16;5057713;28;20035;-85
2023/12/14 03:05:03;;;;;;;11.45;8.38;;;;;;;3.83;100.00;98004.78;5073838;28;20035;-84
2023/12/14 03:07:28;;;;;;;15.13;7.75;;;;;;;3.57;100.00;98000.69;5055404;28;20028;-84
2023/12/14 03:09:54;;;;;;;10.85;7.03;;;;;;;3.24;100.00;98002.97;5065031;28;20071;-85
2023/12/14 03:12:19;;;;;;;13.52;7.53;;;;;;;3.25;100.00;98015.13;5072294;28;20028;-84
2023/12/14 03:14:44;;;;;;;18.40;7.93;;;;;;;3.27;100.00;98016.53;5051985;28;20048;-84
2023/12/14 03:17:12;;;;;;;12.70;8.15;;;;;;;3.35;100.00;98026.75;5074355;28;20036;-85
2023/12/14 03:19:39;;;;;;;14.00;8.68;;;;;;;3.30;100.00;98029.25;5056713;28;20032;-84
2023/12/14 03:22:05;;;;;;;15.32;8.27;;;;;;;3.45;100.00;98039.41;5067172;28;20076;-84
2023/12/14 03:24:30;;;;;;;12.75;8.25;;;;;;;3.17;100.00;98026.75;5053413;28;20689;-84
2023/12/14 03:26:56;;;;;;;16.98;9.52;;;;;;;3.48;100.00;98044.22;5071309;28;20058;-84
2023/12/14 03:29:21;;;;;;;16.33;9.20;;;;;;;3.43;100.00;98052.81;5070649;28;20509;-85
2023/12/14 03:31:46;;;;;;;13.00;8.63;;;;;;;3.62;100.00;98062.31;5057789;28;20024;-85
2023/12/14 03:34:12;;;;;;;16.40;9.50;;;;;;;3.77;100.00;98064.56;5096956;28;20031;-84
2023/12/14 03:36:37;;;;;;;14.60;8.95;;;;;;;3.57;100.00;98048.19;5072557;28;20031;-84
2023/12/14 03:39:03;;;;;;;15.48;9.60;;;;;;;3.87;100.00;98075.38;5038802;28;20116;-84
2023/12/14 03:41:28;;;;;;;15.45;9.10;;;;;;;4.20;100.00;98072.25;5055326;28;20115;-85
2023/12/14 03:43:53;;;;;;;15.45;9.50;;;;;;;3.62;100.00;98070.25;5054198;28;20132;-85
2023/12/14 03:46:19;;;;;;;15.00;9.30;;;;;;;3.63;100.00;98068.38;5058196;28;20096;-85
2023/12/14 03:48:44;;;;;;;17.05;11.35;;;;;;;3.97;100.00;98096.75;5052415;28;20024;-85
2023/12/14 03:51:09;;;;;;;18.63;11.70;;;;;;;3.32;100.00;98087.06;5039849;28;20111;-85
2023/12/14 03:53:35;;;;;;;18.05;11.85;;;;;;;3.23;100.00;98088.38;5055143;28;20028;-85
2023/12/14 03:56:00;;;;;;;19.25;11.77;;;;;;;3.18;100.00;98096.94;5039334;28;20062;-85
2023/12/14 03:58:26;;;;;;;17.63;11.18;;;;;;;3.77;100.00;98097.03;5088156;28;20389;-84
2023/12/14 04:00:52;;;;;;;19.30;11.82;;;;;;;3.38;100.00;98094.88;5076052;28;20081;-85
2023/12/14 04:03:18;;;;;;;20.02;10.73;;;;;;;3.61;100.00;98092.38;5073724;28;20082;-84
2023/12/14 04:05:44;;;;;;;20.10;11.48;;;;;;;3.59;100.00;98104.97;5073051;28;20042;-85
2023/12/14 04:08:09;;;;;;;22.77;11.50;;;;;;;3.46;100.00;98109.59;5091426;28;20428;-84
2023/12/14 04:10:35;;;;;;;15.50;10.20;;;;;;;3.46;100.00;98112.22;5074498;28;20108;-84
2023/12/14 04:13:00;;;;;;;18.52;10.20;;;;;;;3.14;100.00;98105.50;5053708;28;20039;-85
2023/12/14 04:15:25;;;;;;;19.95;10.40;;;;;;;3.95;100.00;98103.28;5052824;28;20032;-84
2023/12/14 04:17:51;;;;;;;15.00;8.88;;;;;;;4.06;100.00;98108.63;5050875;28;20434;-85
2023/12/14 04:20:16;;;;;;;15.98;9.70;;;;;;;3.68;100.00;98116.84;5083397;28;20905;-85
2023/12/14 04:22:44;;;;;;;18.23;10.45;;;;;;;3.52;100.00;98130.63;5055368;28;20028;-85
2023/12/14 04:25:09;;;;;;;17.13;9.93;;;;;;;3.71;100.00;98112.94;5067856;28;20026;-85
2023/12/14 04:27:35;;;;;;;19.42;10.35;;;;;;;3.31;100.00;98132.91;5088235;28;20039;-85
2023/12/14 04:30:00;;;;;;;18.40;9.15;;;;;;;3.42;100.00;98132.97;5074255;28;20032;-85
2023/12/14 04:32:26;;;;;;;15.82;9.50;;;;;;;3.00;100.00;98147.81;5066785;28;21710;-85
2023/12/14 04:34:52;;;;;;;15.18;9.35;;;;;;;3.07;100.00;98158.28;5073394;28;20034;-85
2023/12/14 04:37:17;;;;;;;14.88;9.30;;;;;;;2.82;100.00;98171.47;5071192;28;20032;-84
2023/12/14 04:39:43;;;;;;;12.00;6.80;;;;;;;2.79;100.00;98158.75;5073851;28;20119;-85
2023/12/14 04:42:08;;;;;;;11.70;7.25;;;;;;;2.76;100.00;98174.97;5046649;28;20038;-84
2023/12/14 04:44:33;;;;;;;13.30;7.90;;;;;;;3.03;100.00;98168.47;5054785;28;20024;-85
2023/12/14 04:46:59;;;;;;;13.63;7.63;;;;;;;3.44;100.00;98175.78;5065289;28;20157;-84
2023/12/14 04:49:24;;;;;;;11.35;7.00;;;;;;;3.08;100.00;98180.19;5058765;28;20402;-85
2023/12/14 04:51:49;;;;;;;13.68;7.78;;;;;;;3.12;100.00;98163.72;5055969;28;20031;-85
2023/12/14 04:54:15;;;;;;;10.13;6.63;;;;;;;3.02;100.00;98179.22;5046829;28;20115;-85
2023/12/14 04:56:41;;;;;;;9.10;5.78;;;;;;;2.86;100.00;98182.41;5070660;28;20090;-85
2023/12/14 04:59:07;;;;;;;10.18;6.40;;;;;;;2.77;100.00;98189.78;5056765;28;20028;-85
2023/12/14 05:01:32;;;;;;;12.35;6.70;;;;;;;2.78;100.00;98196.66;5090619;28;20024;-85
2023/12/14 05:03:58;;;;;;;11.63;6.90;;;;;;;2.66;100.00;98203.66;5055944;28;20031;-85
2023/12/14 05:06:23;;;;;;;9.13;6.50;;;;;;;2.81;100.00;98206.78;5056866;28;20441;-85
2023/12/14 05:08:48;;;;;;;11.02;7.65;;;;;;;2.87;100.00;98226.19;5054972;28;20024;-85
2023/12/14 05:11:14;;;;;;;12.13;7.47;;;;;;;3.30;100.00;98215.69;5057096;28;20059;-84
2023/12/14 05:13:42;;;;;;;11.15;6.88;;;;;;;2.68;100.00;98225.31;5068565;28;20107;-84
2023/12/14 05:16:13;;;;;;;11.93;7.53;;;;;;;2.82;100.00;98234.72;5053186;28;20039;-85
2023/12/14 05:18:39;;;;;;;13.07;7.80;;;;;;;3.15;100.00;98241.56;5070024;28;20043;-85
2023/12/14 05:21:05;;;;;;;10.65;7.32;;;;;;;3.04;100.00;98253.63;5054849;28;20044;-85
2023/12/14 05:23:30;;;;;;;12.82;8.35;;;;;;;3.01;100.00;98254.84;5036872;28;20044;-83
2023/12/14 05:25:55;;;;;;;13.45;7.70;;;;;;;3.43;100.00;98241.94;5065873;28;20048;-84
2023/12/14 05:28:21;;;;;;;14.68;8.93;;;;;;;2.72;100.00;98241.50;5056932;28;20028;-84
2023/12/14 05:30:46;;;;;;;15.10;9.23;;;;;;;2.81;100.00;98248.13;5088840;28;20024;-83
2023/12/14 05:33:11;;;;;;;13.18;8.10;;;;;;;3.34;100.00;98265.13;5040999;28;20054;-84
2023/12/14 05:35:37;;;;;;;15.30;9.13;;;;;;;3.77;100.00;98265.13;5056634;28;20024;-84
2023/12/14 05:38:02;;;;;;;16.17;10.18;;;;;;;2.68;100.00;98270.09;5073697;28;20036;-83
2023/12/14 05:40:27;;;;;;;15.70;10.13;;;;;;;2.95;100.00;98279.44;5057028;28;20127;-84
2023/12/14 05:42:53;;;;;;;14.52;9.20;;;;;;;2.92;100.00;98271.16;5077399;28;20039;-83
2023/12/14 05:45:18;;;;;;;17.25;9.65;;;;;;;3.13;100.00;98277.88;5064339;28;20020;-83
2023/12/14 05:47:44;;;;;;;14.10;8.30;;;;;;;3.14;100.00;98295.31;5040359;28;20036;-83
2023/12/14 05:50:09;;;;;;;15.90;9.00;;;;;;;2.67;100.00;98297.44;5086985;28;20035;-83
2023/12/14 05:52:35;;;;;;;15.55;8.52;;;;;;;2.69;100.00;98305.94;5088222;28;20070;-83
2023/12/14 05:55:00;;;;;;;18.85;10.27;;;;;;;3.08;100.00;98304.09;5074568;28;20028;-83
2023/12/14 05:57:26;;;;;;;17.55;10.57;;;;;;;3.00;100.00;98299.88;5038403;28;20090;-83
2023/12/14 05:59:51;;;;;;;16.85;10.35;;;;;;;2.45;100.00;98293.50;5036277;28;20032;-83
2023/12/14 06:02:17;;;;;;;18.15;10.38;;;;;;;2.76;100.00;98293.56;5068542;28;20050;-84
2023/12/14 06:04:42;;;;;;;19.52;10.75;;;;;;;2.99;100.00;98319.38;5054772;28;20067;-83
2023/12/14 06:07:07;;;;;;;20.85;10.55;;;;;;;2.76;100.00;98325.16;5083828;28;20136;-84
2023/12/14 06:09:34;;;;;;;23.05;11.68;;;;;;;2.74;100.00;98326.41;5092304;28;20085;-83
2023/12/14 06:12:01;;;;;;;15.75;10.15;;;;;;;2.64;100.00;98323.41;5042602;28;20165;-84
2023/12/14 06:14:27;;;;;;;18.60;11.98;;;;;;;2.19;100.00;98335.75;5056302;28;20032;-83
2023/12/14 06:16:52;;;;;;;16.17;11.13;;;;;;;2.47;100.00;98332.81;5068250;28;21461;-83
2023/12/14 06:19:17;;;;;;;21.05;12.75;;;;;;;2.43;100.00;98342.94;5056957;28;20686;-83
2023/12/14 06:21:43;;;;;;;22.73;11.15;;;;;;;2.60;100.00;98346.72;5057111;28;20115;-83
2023/12/14 06:24:08;;;;;;;24.35;12.55;;;;;;;2.65;100.00;98349.53;5057493;28;20042;-84
2023/12/14 06:26:33;;;;;;;21.80;12.63;;;;;;;3.01;100.00;98349.75;5073391;28;20031;-84
2023/12/14 06:28:59;;;;;;;17.40;11.48;;;;;;;2.51;100.00;98342.72;5075153;28;20028;-83
2023/12/14 06:31:24;;;;;;;18.73;10.68;;;;;;;3.15;100.00;98350.47;5057335;28;20495;-83
2023/12/14 06:33:49;;;;;;;19.63;10.70;;;;;;;2.83;100.00;98367.28;5059016;28;20070;-83
2023/12/14 06:36:18;;;;;;;19.83;11.20;;;;;;;3.64;100.00;98368.16;5070432;28;20364;-84
2023/12/14 06:38:44;;;;;;;15.88;9.43;;;;;;;3.94;100.00;98373.56;5074012;28;20168;-84
2023/12/14 06:41:20;;;;;;;23.00;11.73;;;;;;;3.51;100.00;98369.09;5057577;28;20123;-83
2023/12/14 06:43:46;;;;;;;17.20;10.35;;;;;;;3.70;100.00;98376.03;5042213;28;20080;-84
2023/12/14 06:46:11;;;;;;;18.00;11.27;;;;;;;2.89;99.30;98382.25;5066758;28;20028;-82
2023/12/14 06:48:36;;;;;;;18.95;11.13;;;;;;;2.64;99.99;98384.81;5055637;28;20071;-85
2023/12/14 06:51:02;;;;;;;21.33;11.82;;;;;;;2.39;100.00;98390.97;5066974;28;20024;-83
2023/12/14 06:53:27;;;;;;;20.77;12.48;;;;;;;2.64;100.00;98395.38;5072369;28;20032;-83
2023/12/14 06:55:52;;;;;;;18.58;12.27;;;;;;;2.72;100.00;98384.56;5057054;28;20040;-83
2023/12/14 06:58:18;;;;;;;21.92;12.18;;;;;;;2.42;100.00;98396.66;5058079;28;20123;-83
2023/12/14 07:00:43;;;;;;;23.13;13.30;;;;;;;2.19;100.00;98393.66;5057613;28;20036;-83
2023/12/14 07:03:09;;;;;;;21.77;13.40;;;;;;;2.68;100.00;98393.91;5076412;28;20653;-84
2023/12/14 07:05:34;;;;;;;26.02;14.30;;;;;;;3.07;100.00;98407.91;5070104;28;20107;-84
2023/12/14 07:07:59;;;;;;;23.92;12.35;;;;;;;2.90;100.00;98399.69;5074205;28;20024;-84
2023/12/14 07:10:25;;;;;;;23.38;12.75;;;;;;;2.79;100.00;98409.09;5079029;28;20020;-84
2023/12/14 07:12:50;;;;;;;21.23;12.52;;;;;;;3.09;100.00;98408.50;5057091;28;20060;-84
2023/12/14 07:15:15;;;;;;;23.77;12.80;;;;;;;3.06;100.00;98415.00;5075099;28;20457;-84
2023/12/14 07:17:41;;;;;;;17.52;10.93;;;;;;;2.70;99.65;98418.22;5073416;28;20063;-83
2023/12/14 07:20:07;;;;;;;24.83;11.93;;;;;;;2.24;100.00;98372.81;5070529;28;20032;-83
2023/12/14 07:22:32;;;;;;;19.08;11.05;;;;;;;2.52;100.00;98426.00;5074488;28;20039;-84
2023/12/14 07:24:58;;;;;;;18.83;11.45;;;;;;;2.91;100.00;98425.03;5051655;28;20478;-83
2023/12/14 07:27:23;;;;;;;17.05;9.90;;;;;;;2.76;100.00;98422.66;5072085;28;20494;-83
2023/12/14 07:29:49;;;;;;;16.75;9.65;;;;;;;2.49;100.00;98444.81;5056200;28;20114;-84
2023/12/14 07:32:16;;;;;;;20.30;12.07;;;;;;;2.48;100.00;98450.31;5075552;28;20486;-83
2023/12/14 07:34:41;;;;;;;18.80;10.82;;;;;;;2.28;100.00;98459.06;5090511;28;20028;-83
2023/12/14 07:37:06;;;;;;;20.95;11.32;;;;;;;2.20;100.00;98461.09;5053917;28;20069;-83
2023/12/14 07:39:32;;;;;;;20.95;11.45;;;;;;;2.07;100.00;98445.31;5070713;28;20053;-83
2023/12/14 07:41:57;;;;;;;20.73;11.43;;;;;;;2.43;100.00;98458.81;5054950;28;20024;-84
2023/12/14 07:44:24;;;;;;;19.60;11.30;;;;;;;2.51;100.00;98476.25;5041695;28;20563;-83
2023/12/14 07:46:50;;;;;;;18.98;10.02;;;;;;;2.41;100.00;98484.56;5037768;28;20407;-84
2023/12/14 07:49:18;;;;;;;23.42;11.73;;;;;;;2.62;100.00;98489.56;5067666;28;20032;-83
2023/12/14 07:51:43;;;;;;;16.63;9.18;;;;;;;2.82;100.00;98494.78;5054427;28;20028;-84
2023/12/14 07:54:08;;;;;;;18.52;10.50;;;;;;;3.21;100.00;98492.00;5051784;28;20089;-83
2023/12/14 07:56:34;;;;;;;16.80;9.57;;;;;;;3.21;100.00;98496.50;5087334;28;20081;-83
2023/12/14 07:58:59;;;;;;;15.98;9.20;;;;;;;3.79;100.00;98501.44;5092945;28;20032;-84
2023/12/14 08:01:25;;;;;;;20.75;11.05;;;;;;;3.85;99.78;98507.66;5085147;28;20028;-84
2023/12/14 08:03:50;;;;;;;19.65;10.75;;;;;;;3.91;99.04;98496.25;5074135;28;20035;-83
2023/12/14 08:06:16;;;;;;;14.52;9.23;;;;;;;3.95;100.00;98508.03;5034601;28;20476;-85
2023/12/14 08:08:42;;;;;;;18.42;11.38;;;;;;;4.34;99.29;98512.97;5078895;28;20040;-83
2023/12/14 08:11:07;;;;;;;15.70;10.45;;;;;;;3.85;97.42;98507.66;5069057;28;20035;-83
2023/12/14 08:13:33;;;;;;;13.73;9.75;;;;;;;3.73;97.37;98517.31;5072076;28;20020;-83
2023/12/14 08:15:58;;;;;;;15.38;9.48;;;;;;;4.18;98.92;98526.72;5065802;28;20032;-84
2023/12/14 08:18:23;;;;;;;19.95;10.60;;;;;;;3.68;97.21;98525.03;5064816;28;20047;-84
2023/12/14 08:20:51;;;;;;;15.32;10.52;;;;;;;3.68;97.62;98525.03;5072865;28;20038;-84
2023/12/14 08:23:16;;;;;;;15.82;9.18;;;;;;;3.99;97.76;98538.25;5056687;28;20028;-84
2023/12/14 08:25:42;;;;;;;17.80;11.25;;;;;;;3.05;95.50;98521.50;5070481;28;20039;-83
2023/12/14 08:28:07;;;;;;;16.17;9.95;;;;;;;4.21;99.51;98544.78;5038493;28;20035;-84
2023/12/14 08:30:33;;;;;;;17.20;10.52;;;;;;;3.71;96.43;98553.66;5054384;28;20036;-84
2023/12/14 08:32:58;;;;;;;17.08;10.70;;;;;;;3.15;95.82;98548.22;5072801;28;20036;-83
2023/12/14 08:35:23;;;;;;;16.42;10.40;;;;;;;3.29;97.22;98560.34;5052811;28;20028;-84
2023/12/14 08:37:49;;;;;;;17.38;11.02;;;;;;;3.77;98.31;98568.63;5053868;28;20028;-83
2023/12/14 08:40:14;;;;;;;18.40;10.45;;;;;;;3.50;97.03;98583.78;5070972;28;20031;-83
2023/12/14 08:42:40;;;;;;;19.95;10.07;;;;;;;3.38;97.55;98574.09;5089941;28;21967;-84
2023/12/14 08:45:07;;;;;;;22.88;13.07;;;;;;;3.07;97.67;98592.47;5052171;28;20064;-83
2023/12/14 08:47:33;;;;;;;21.75;12.52;;;;;;;3.09;98.11;98593.88;5067989;28;20084;-84
2023/12/14 08:49:58;;;;;;;22.75;12.45;;;;;;;3.40;97.74;98601.09;5053145;28;20526;-83
2023/12/14 08:52:24;;;;;;;21.25;12.20;;;;;;;3.69;99.10;98603.19;5071817;28;20147;-84
2023/12/14 08:54:49;;;;;;;25.52;14.85;;;;;;;3.27;97.35;98612.50;5056371;28;20040;-83
2023/12/14 08:57:14;;;;;;;21.13;12.40;;;;;;;3.46;98.74;98611.59;5071058;28;20062;-82
2023/12/14 08:59:40;;;;;;;24.55;13.65;;;;;;;3.22;98.86;98614.13;5065095;28;20525;-85
2023/12/14 09:02:05;;;;;;;29.40;14.85;;;;;;;2.84;97.26;98616.66;5053353;28;20127;-84
2023/12/14 09:04:31;;;;;;;23.42;14.57;;;;;;;2.91;96.87;98649.88;5034096;28;20032;-84
2023/12/14 09:06:57;;;;;;;26.85;13.85;;;;;;;2.90;97.02;98647.44;5051030;28;20105;-83
2023/12/14 09:09:22;;;;;;;27.58;15.05;;;;;;;3.44;99.03;98649.75;5037471;28;20181;-84
2023/12/14 09:11:47;;;;;;;28.77;14.70;;;;;;;3.36;98.42;98657.91;5089445;28;20032;-85
2023/12/14 09:14:13;;;;;;;22.50;11.82;;;;;;;4.22;99.56;98644.13;5054830;28;20028;-85
2023/12/14 09:16:38;;;;;;;20.90;12.52;;;;;;;4.69;98.73;98660.47;5055116;28;20032;-85
2023/12/14 09:19:03;;;;;;;23.52;12.75;;;;;;;4.82;97.07;98665.66;5036149;28;20032;-85
2023/12/14 09:21:29;;;;;;;23.77;14.07;;;;;;;4.50;95.27;98659.56;5068699;28;20024;-84
2023/12/14 09:23:54;;;;;;;20.27;11.18;;;;;;;4.87;96.49;98665.81;5054484;28;20028;-84
2023/12/14 09:26:19;;;;;;;20.67;12.55;;;;;;;4.57;96.84;98673.56;5052224;28;20119;-84
2023/12/14 09:28:45;;;;;;;21.90;12.80;;;;;;;4.13;95.39;98668.38;5059357;28;20036;-84
2023/12/14 09:31:11;;;;;;;22.02;12.10;;;;;;;4.92;96.80;98676.53;5033890;28;20024;-83
2023/12/14 09:33:36;;;;;;;19.75;12.02;;;;;;;4.85;96.64;98696.97;5051724;28;20542;-85
2023/12/14 09:36:02;;;;;;;23.35;12.63;;;;;;;4.81;95.73;98691.28;5069337;28;20085;-84
2023/12/14 09:38:28;;;;;;;15.75;10.85;;;;;;;5.00;95.98;98700.09;5071233;28;20032;-84
2023/12/14 09:40:53;;;;;;;20.15;11.43;;;;;;;4.93;95.76;98704.63;5060980;28;20505;-85
2023/12/14 09:43:19;;;;;;;20.20;12.65;;;;;;;5.11;95.24;98702.03;5068623;28;20027;-85
2023/12/14 09:45:47;;;;;;;18.13;11.77;;;;;;;5.01;94.32;98702.50;5072492;28;20381;-84
2023/12/14 09:48:14;;;;;;;21.70;11.07;;;;;;;5.06;94.89;98704.50;5041068;28;20047;-84
2023/12/14 09:50:41;;;;;;;20.27;12.07;;;;;;;4.99;94.32;98687.88;5093442;28;20099;-84
2023/12/14 09:53:07;;;;;;;17.23;11.88;;;;;;;5.02;95.06;98708.63;5072239;28;22238;-84
2023/12/14 09:55:32;;;;;;;15.48;10.95;;;;;;;5.12;93.87;98703.63;5077481;28;20476;-84
2023/12/14 09:57:58;;;;;;;18.48;12.80;;;;;;;4.69;94.77;98710.69;5070037;28;20116;-84
2023/12/14 10:00:40;;;;;;;24.75;12.93;;;;;;;5.03;94.30;98710.22;5053001;28;20044;-84
2023/12/14 10:03:27;;;;;;;17.40;11.73;;;;;;;4.71;93.91;98700.72;5086096;28;20046;-84
2023/12/14 10:05:54;;;;;;;20.98;12.85;;;;;;;4.83;95.04;98722.78;5054673;28;20031;-84
2023/12/14 10:08:19;;;;;;;21.65;12.82;;;;;;;4.99;95.08;98731.00;5088131;28;20028;-84
2023/12/14 10:10:48;;;;;;;18.52;12.02;;;;;;;4.87;93.94;98718.69;5091924;28;20035;-84
2023/12/14 10:13:14;;;;;;;19.80;12.88;;;;;;;5.13;94.21;98729.06;5092555;28;20414;-84
2023/12/14 10:15:44;;;;;;;18.63;12.30;;;;;;;4.93;93.90;98717.84;5073541;28;20031;-84
2023/12/14 10:18:10;;;;;;;19.20;12.85;;;;;;;4.93;94.24;98723.94;5055940;28;20741;-85
2023/12/14 10:20:37;;;;;;;20.08;12.10;;;;;;;4.96;94.25;98736.72;5071640;28;20034;-85
2023/12/14 10:23:07;;;;;;;18.33;11.68;;;;;;;5.04;93.95;98733.81;5091171;28;20379;-84
2023/12/14 10:25:33;;;;;;;17.52;12.07;;;;;;;4.99;93.42;98738.13;5074381;28;20032;-84
2023/12/14 10:27:59;;;;;;;16.65;11.90;;;;;;;4.73;93.27;98746.25;5072568;28;20085;-84
2023/12/14 10:30:25;;;;;;;18.42;11.68;;;;;;;4.79;93.51;98754.13;5047971;28;20085;-84
2023/12/14 10:32:50;;;;;;;17.90;11.55;;;;;;;4.41;93.21;98746.22;5074608;28;20040;-83
2023/12/14 11:01:24;;;;;;;20.20;11.27;;;;;;;4.54;94.91;98769.94;1686549;26;20052;-78
2023/12/14 11:03:53;;;;;;;21.90;13.35;;;;;;;4.81;94.99;98783.81;5043465;28;20089;-78
2023/12/14 11:06:32;;;;;;;19.80;12.82;;;;;;;5.15;94.12;98785.22;5041192;28;20025;-78
2023/12/14 11:09:06;;;;;;;20.35;12.77;;;;;;;4.95;93.27;98801.22;5034266;28;20021;-78
2023/12/14 11:11:40;;;;;;;16.30;11.35;;;;;;;5.17;92.88;98796.41;5017954;28;20025;-78
2023/12/14 11:14:10;;;;;;;17.13;11.40;;;;;;;5.05;93.06;98798.09;5040866;28;20116;-77
2023/12/14 11:16:37;;;;;;;10.98;9.40;;;;;;;4.96;92.31;98807.31;5042353;28;20025;-78
2023/12/14 11:19:25;;;;;;;15.50;10.63;;;;;;;4.67;92.52;98819.28;5050500;28;20445;-78
2023/12/14 11:21:53;;;;;;;15.02;9.75;;;;;;;5.01;93.73;98824.16;5029094;28;20029;-79
2023/12/14 11:24:19;;;;;;;12.13;9.52;;;;;;;5.12;92.82;98820.03;5046368;28;20056;-79
2023/12/14 11:26:44;;;;;;;13.40;10.25;;;;;;;4.69;92.71;98821.72;5052417;28;20102;-78
2023/12/14 11:29:09;;;;;;;12.90;8.90;;;;;;;5.01;92.71;98833.94;5052681;28;20667;-79
2023/12/14 11:31:35;;;;;;;13.27;10.38;;;;;;;5.09;93.37;98831.84;5051379;28;20032;-79
2023/12/14 11:34:03;;;;;;;10.77;8.63;;;;;;;4.67;92.58;98835.16;5050647;28;20031;-78
2023/12/14 11:36:28;;;;;;;13.20;9.40;;;;;;;5.06;93.06;98831.47;5048907;28;20021;-79
2023/12/14 11:38:54;;;;;;;14.02;9.88;;;;;;;5.21;92.07;98842.56;5051542;28;20426;-78
2023/12/14 11:41:21;;;;;;;12.48;10.15;;;;;;;4.98;91.17;98839.66;5050432;28;20017;-78